createdAt,value
2022-08-09T00:04:25.044Z,18.10
2022-08-09T00:07:02.689Z,18.20
2022-08-09T00:12:03.716Z,19.30
2022-08-09T00:14:38.278Z,18.60
2022-08-09T00:17:06.833Z,19.00
2022-08-09T00:19:34.095Z,17.00
2022-08-09T00:22:03.414Z,19.20
2022-08-09T00:27:00.519Z,18.40
2022-08-09T00:29:39.653Z,17.70
2022-08-09T00:34:54.359Z,17.30
2022-08-09T00:55:32.949Z,16.70
2022-08-09T00:57:59.282Z,18.80
2022-08-09T01:03:16.751Z,16.80
2022-08-09T01:06:18.450Z,17.40
2022-08-09T01:09:03.678Z,16.40
2022-08-09T01:11:53.352Z,17.30
2022-08-09T01:14:46.552Z,16.60
2022-08-09T01:17:42.034Z,17.20
2022-08-09T01:20:30.857Z,16.60
2022-08-09T01:24:01.781Z,16.60
2022-08-09T01:26:20.733Z,15.90
2022-08-09T01:28:54.109Z,16.60
2022-08-09T01:32:32.042Z,17.30
2022-08-09T01:34:16.924Z,16.10
2022-08-09T01:36:45.116Z,17.00
2022-08-09T01:39:15.367Z,18.40
2022-08-09T01:41:53.784Z,15.80
2022-08-09T01:44:29.836Z,16.90
2022-08-09T01:46:59.208Z,16.90
2022-08-09T01:49:38.761Z,17.50
2022-08-09T01:52:10.309Z,17.20
2022-08-09T01:54:40.729Z,16.80
2022-08-09T01:57:21.691Z,16.70
2022-08-09T01:59:53.416Z,16.80
2022-08-09T02:02:31.501Z,18.10
2022-08-09T02:05:05.850Z,17.10
2022-08-09T02:08:40.609Z,16.70
2022-08-09T02:10:42.786Z,16.60
2022-08-09T02:13:17.470Z,18.00
2022-08-09T02:15:51.396Z,18.00
2022-08-09T02:18:22.973Z,16.70
2022-08-09T02:20:55.109Z,15.80
2022-08-09T02:23:45.515Z,17.90
2022-08-09T02:26:24.867Z,16.60
2022-08-09T02:28:57.417Z,16.50
2022-08-09T02:31:35.523Z,17.70
2022-08-09T02:34:40.571Z,16.50
2022-08-09T02:37:14.151Z,16.50
2022-08-09T02:40:10.554Z,16.50
2022-08-09T02:42:41.908Z,15.60
2022-08-09T02:45:15.102Z,16.40
2022-08-09T02:47:57.771Z,15.20
2022-08-09T02:50:36.420Z,15.90
2022-08-09T02:53:26.460Z,16.40
2022-08-09T02:55:58.495Z,15.30
2022-08-09T02:58:35.388Z,15.40
2022-08-09T03:01:08.277Z,16.40
2022-08-09T03:04:12.870Z,16.40
2022-08-09T03:06:27.968Z,15.70
2022-08-09T03:08:57.202Z,16.30
2022-08-09T03:12:06.555Z,16.60
2022-08-09T03:14:14.070Z,16.30
2022-08-09T03:16:45.007Z,16.30
2022-08-09T03:19:14.413Z,16.20
2022-08-09T03:22:03.357Z,16.30
2022-08-09T03:24:31.725Z,16.40
2022-08-09T03:29:57.120Z,14.40
2022-08-09T03:32:26.232Z,15.60
2022-08-09T03:45:11.166Z,16.20
2022-08-09T03:47:40.000Z,17.30
2022-08-09T03:50:10.866Z,15.60
2022-08-09T03:52:58.642Z,15.10
2022-08-09T03:55:27.138Z,16.00
2022-08-09T04:00:44.949Z,16.00
2022-08-09T04:03:19.645Z,16.10
2022-08-09T04:05:59.858Z,17.20
2022-08-09T04:13:44.971Z,16.60
2022-08-09T04:29:09.649Z,15.00
2022-08-09T04:41:59.780Z,15.60
2022-08-09T04:52:26.109Z,14.90
2022-08-09T04:55:00.963Z,16.10
2022-08-09T05:00:16.890Z,14.80
2022-08-09T05:02:44.321Z,15.30
2022-08-09T05:08:05.992Z,16.90
2022-08-09T05:13:04.008Z,17.20
2022-08-09T05:18:39.622Z,16.70
2022-08-09T05:23:54.880Z,17.30
2022-08-09T05:26:15.997Z,16.50
2022-08-09T05:28:53.268Z,17.40
2022-08-09T05:36:47.019Z,16.10
2022-08-09T05:39:28.553Z,16.50
2022-08-09T05:42:01.774Z,15.60
2022-08-09T05:44:32.920Z,16.30
2022-08-09T05:47:04.027Z,17.60
2022-08-09T05:52:20.898Z,16.60
2022-08-09T05:57:17.580Z,18.40
2022-08-09T05:59:46.185Z,16.80
2022-08-09T06:02:16.806Z,17.90
2022-08-09T06:20:08.393Z,16.80
2022-08-09T06:25:04.573Z,17.70
2022-08-09T06:30:14.304Z,17.80
2022-08-09T06:33:00.709Z,19.20
2022-08-09T06:35:56.093Z,16.60
2022-08-09T06:40:46.159Z,18.50
2022-08-09T06:43:14.143Z,17.70
2022-08-09T06:48:31.107Z,18.00
2022-08-09T06:51:00.012Z,18.30
2022-08-09T06:53:27.350Z,17.50
2022-08-09T07:00:46.607Z,18.50
2022-08-09T07:01:17.295Z,19.70
2022-08-09T07:06:21.514Z,17.40
2022-08-09T07:14:05.278Z,20.50
2022-08-09T07:19:22.847Z,19.10
2022-08-09T07:21:57.185Z,19.30
2022-08-09T07:24:32.664Z,19.10
2022-08-09T07:27:21.092Z,19.40
2022-08-09T07:29:57.135Z,19.50
2022-08-09T07:35:08.022Z,19.20
2022-08-09T07:37:44.030Z,19.00
2022-08-09T07:40:18.320Z,19.80
2022-08-09T07:42:47.953Z,19.20
2022-08-09T07:45:23.676Z,19.20
2022-08-09T07:48:04.987Z,20.20
2022-08-09T07:53:04.625Z,21.70
2022-08-09T07:55:41.707Z,19.10
2022-08-09T07:58:21.534Z,19.90
2022-08-09T08:00:58.949Z,19.10
2022-08-09T08:03:36.907Z,19.60
2022-08-09T08:19:06.498Z,20.20
2022-08-09T08:29:28.049Z,23.50
2022-08-09T08:32:03.100Z,22.20
2022-08-09T08:37:01.391Z,23.90
2022-08-09T08:39:28.480Z,24.10
2022-08-09T08:44:29.679Z,24.10
2022-08-09T08:47:05.088Z,24.40
2022-08-09T08:52:52.792Z,22.10
2022-08-09T08:55:09.719Z,25.20
2022-08-09T09:00:12.751Z,24.70
2022-08-09T09:02:50.094Z,25.20
2022-08-09T09:05:33.025Z,23.40
2022-08-09T09:08:02.808Z,25.70
2022-08-09T09:10:30.482Z,24.30
2022-08-09T09:12:58.489Z,24.30
2022-08-09T09:15:28.530Z,24.70
2022-08-09T09:17:55.684Z,25.60
2022-08-09T09:22:55.747Z,25.20
2022-08-09T09:26:03.712Z,25.30
2022-08-09T09:29:03.122Z,25.40
2022-08-09T09:32:06.815Z,26.70
2022-08-09T09:34:15.299Z,26.80
2022-08-09T09:36:53.080Z,26.00
2022-08-09T09:39:54.744Z,26.10
2022-08-09T09:42:29.493Z,26.90
2022-08-09T09:45:03.736Z,26.60
2022-08-09T09:47:32.658Z,26.80
2022-08-09T09:50:14.952Z,26.90
2022-08-09T09:52:54.666Z,27.20
2022-08-09T09:55:28.120Z,27.20
2022-08-09T09:58:16.353Z,27.40
2022-08-09T10:00:54.707Z,27.50
2022-08-09T10:03:57.505Z,27.80
2022-08-09T10:06:43.489Z,27.90
2022-08-09T10:09:22.752Z,27.10
2022-08-09T10:12:27.714Z,28.20
2022-08-09T10:14:49.462Z,28.20
2022-08-09T10:17:50.853Z,28.70
2022-08-09T10:20:35.851Z,28.80
2022-08-09T10:23:21.870Z,30.50
2022-08-09T10:26:08.054Z,29.20
2022-08-09T10:28:38.644Z,29.50
2022-08-09T10:34:10.101Z,29.30
2022-08-09T10:36:45.670Z,29.20
2022-08-09T10:39:15.860Z,30.10
2022-08-09T10:41:46.214Z,30.20
2022-08-09T10:44:17.660Z,30.40
2022-08-09T10:47:00.831Z,30.60
2022-08-09T10:49:51.626Z,30.70
2022-08-09T10:52:36.358Z,30.90
2022-08-09T10:55:26.688Z,31.30
2022-08-09T10:58:00.118Z,32.80
2022-08-09T11:00:50.959Z,31.30
2022-08-09T11:03:50.263Z,31.40
2022-08-09T11:06:20.838Z,32.70
2022-08-09T11:08:53.430Z,31.50
2022-08-09T11:11:23.258Z,32.10
2022-08-09T11:14:31.703Z,31.80
2022-08-09T11:16:58.930Z,32.20
2022-08-09T11:20:10.806Z,32.80
2022-08-09T11:22:56.690Z,32.10
2022-08-09T11:25:44.995Z,32.50
2022-08-09T11:28:54.174Z,32.70
2022-08-09T11:31:49.618Z,32.70
2022-08-09T11:34:46.027Z,33.00
2022-08-09T11:37:26.349Z,32.50
2022-08-09T11:40:04.212Z,32.20
2022-08-09T11:42:47.114Z,33.60
2022-08-09T11:45:42.452Z,35.30
2022-08-09T11:48:19.264Z,33.90
2022-08-09T11:53:00.770Z,35.20
2022-08-09T11:53:58.623Z,33.70
2022-08-09T11:56:41.631Z,33.80
2022-08-09T11:59:11.671Z,33.60
2022-08-09T12:02:34.389Z,34.00
2022-08-09T12:04:37.531Z,34.70
2022-08-09T12:07:08.146Z,34.50
2022-08-09T12:09:36.226Z,34.60
2022-08-09T12:12:12.152Z,34.70
2022-08-09T12:14:59.065Z,35.00
2022-08-09T12:17:33.845Z,35.10
2022-08-09T12:20:21.432Z,35.20
2022-08-09T12:22:58.282Z,35.40
2022-08-09T12:25:36.582Z,35.70
2022-08-09T12:29:15.615Z,35.80
2022-08-09T12:31:30.847Z,35.90
2022-08-09T12:34:14.195Z,35.60
2022-08-09T12:36:59.130Z,35.60
2022-08-09T12:39:42.656Z,35.80
2022-08-09T12:42:16.595Z,35.90
2022-08-09T12:44:51.916Z,35.90
2022-08-09T12:47:23.018Z,36.10
2022-08-09T12:50:08.990Z,36.30
2022-08-09T12:53:09.108Z,36.40
2022-08-09T12:56:14.498Z,36.50
2022-08-09T12:58:24.219Z,36.60
2022-08-09T13:00:55.549Z,36.70
2022-08-09T13:03:53.642Z,36.90
2022-08-09T13:06:34.626Z,37.00
2022-08-09T13:09:09.968Z,37.10
2022-08-09T13:11:42.436Z,37.10
2022-08-09T13:14:40.893Z,37.10
2022-08-09T13:17:44.068Z,37.40
2022-08-09T13:20:14.415Z,37.50
2022-08-09T13:23:06.125Z,37.50
2022-08-09T13:25:54.566Z,37.60
2022-08-09T13:28:33.848Z,37.80
2022-08-09T13:32:17.132Z,37.70
2022-08-09T13:33:58.987Z,37.90
2022-08-09T13:36:40.927Z,38.00
2022-08-09T13:41:17.620Z,38.00
2022-08-09T13:42:13.432Z,38.00
2022-08-09T13:44:42.900Z,38.10
2022-08-09T13:47:26.850Z,38.10
2022-08-09T13:50:12.407Z,38.20
2022-08-09T13:52:41.706Z,38.30
2022-08-09T13:55:13.765Z,38.20
2022-08-09T13:57:55.954Z,38.30
2022-08-09T14:00:28.323Z,38.20
2022-08-09T14:03:04.013Z,38.00
2022-08-09T14:06:01.301Z,37.70
2022-08-09T14:08:32.510Z,37.20
2022-08-09T14:11:00.545Z,36.70
2022-08-09T14:14:22.412Z,36.40
2022-08-09T14:16:19.404Z,36.00
2022-08-09T14:18:49.380Z,35.50
2022-08-09T14:21:23.400Z,35.40
2022-08-09T14:23:54.883Z,36.30
2022-08-09T14:26:32.825Z,33.20
2022-08-09T14:30:18.745Z,34.00
2022-08-09T14:31:56.052Z,34.10
2022-08-09T14:34:27.238Z,35.30
2022-08-09T14:36:59.477Z,33.80
2022-08-09T14:39:46.212Z,33.70
2022-08-09T14:42:13.378Z,33.80
2022-08-09T14:45:00.313Z,32.40
2022-08-09T14:47:45.481Z,33.80
2022-08-09T14:50:16.208Z,33.60
2022-08-09T14:52:50.692Z,35.40
2022-08-09T14:55:20.018Z,33.90
2022-08-09T14:57:47.949Z,34.40
2022-08-09T15:00:16.241Z,36.60
2022-08-09T15:02:43.019Z,34.90
2022-08-09T15:05:16.900Z,35.10
2022-08-09T15:07:45.584Z,34.90
2022-08-09T15:10:21.790Z,35.00
2022-08-09T15:12:53.034Z,35.40
2022-08-09T15:15:20.431Z,35.10
2022-08-09T15:17:52.270Z,36.60
2022-08-09T15:21:56.706Z,35.40
2022-08-09T15:24:00.751Z,35.80
2022-08-09T15:25:58.443Z,36.00
2022-08-09T15:28:27.789Z,35.90
2022-08-09T15:31:08.636Z,37.90
2022-08-09T15:34:17.464Z,36.10
2022-08-09T15:36:29.226Z,39.40
2022-08-09T15:39:00.678Z,35.80
2022-08-09T15:41:32.108Z,36.00
2022-08-09T15:44:03.655Z,36.00
2022-08-09T15:46:32.900Z,35.90
2022-08-09T15:49:22.232Z,35.70
2022-08-09T15:52:03.376Z,36.70
2022-08-09T15:54:49.085Z,35.30
2022-08-09T15:57:34.421Z,34.30
2022-08-09T16:00:14.245Z,35.10
2022-08-09T16:02:53.630Z,35.20
2022-08-09T16:05:23.167Z,35.40
2022-08-09T16:07:50.989Z,35.40
2022-08-09T16:10:56.077Z,35.50
2022-08-09T16:13:20.964Z,35.50
2022-08-09T16:16:10.077Z,35.20
2022-08-09T16:18:44.793Z,35.00
2022-08-09T16:21:17.817Z,35.00
2022-08-09T16:24:02.254Z,35.00
2022-08-09T16:26:33.499Z,34.80
2022-08-09T16:29:10.554Z,34.70
2022-08-09T16:32:18.961Z,34.70
2022-08-09T16:34:56.151Z,33.40
2022-08-09T16:37:18.732Z,32.80
2022-08-09T16:39:54.615Z,34.10
2022-08-09T16:42:32.324Z,33.90
2022-08-09T16:44:59.174Z,34.60
2022-08-09T16:48:42.028Z,33.80
2022-08-09T16:50:31.374Z,33.80
2022-08-09T16:53:00.383Z,33.80
2022-08-09T16:55:27.479Z,33.70
2022-08-09T16:58:13.784Z,33.50
2022-08-09T17:00:43.613Z,33.40
2022-08-09T17:03:21.731Z,33.40
2022-08-09T17:06:07.950Z,33.30
2022-08-09T17:09:01.800Z,33.10
2022-08-09T17:11:37.684Z,32.90
2022-08-09T17:14:26.116Z,32.70
2022-08-09T17:17:02.361Z,32.60
2022-08-09T17:20:05.031Z,32.40
2022-08-09T17:22:23.892Z,32.00
2022-08-09T17:24:54.834Z,31.60
2022-08-09T17:27:22.520Z,31.40
2022-08-09T17:29:50.621Z,31.40
2022-08-09T17:32:20.264Z,31.40
2022-08-09T17:35:04.116Z,30.70
2022-08-09T17:38:12.992Z,31.10
2022-08-09T17:40:27.108Z,31.00
2022-08-09T17:42:59.741Z,30.90
2022-08-09T17:46:06.073Z,31.10
2022-08-09T17:48:28.478Z,30.90
2022-08-09T17:51:08.918Z,31.00
2022-08-09T17:53:43.470Z,30.50
2022-08-09T17:56:18.335Z,30.40
2022-08-09T17:58:45.285Z,28.10
2022-08-09T18:01:22.621Z,29.30
2022-08-09T18:03:52.643Z,29.00
2022-08-09T18:06:31.301Z,28.50
2022-08-09T18:09:03.349Z,28.60
2022-08-09T18:12:05.925Z,28.40
2022-08-09T18:14:23.226Z,29.30
2022-08-09T18:16:51.112Z,29.60
2022-08-09T18:20:55.891Z,27.40
2022-08-09T18:22:13.185Z,28.40
2022-08-09T18:24:44.271Z,28.60
2022-08-09T18:27:14.196Z,28.30
2022-08-09T18:30:38.913Z,28.00
2022-08-09T18:32:47.905Z,27.60
2022-08-09T18:35:53.223Z,27.50
2022-08-09T18:38:09.283Z,26.50
2022-08-09T18:40:38.972Z,27.50
2022-08-09T18:43:05.772Z,26.80
2022-08-09T18:46:47.214Z,26.70
2022-08-09T18:48:19.421Z,26.70
2022-08-09T18:50:47.287Z,26.40
2022-08-09T18:53:16.641Z,26.30
2022-08-09T18:55:56.073Z,26.20
2022-08-09T18:58:32.337Z,26.50
2022-08-09T19:01:00.484Z,25.90
2022-08-09T19:03:28.709Z,25.90
2022-08-09T19:06:03.321Z,25.80
2022-08-09T19:08:31.982Z,25.70
2022-08-09T19:10:58.840Z,26.10
2022-08-09T19:13:38.690Z,25.80
2022-08-09T19:16:12.878Z,25.40
2022-08-09T19:18:45.409Z,25.90
2022-08-09T19:21:12.779Z,25.70
2022-08-09T19:24:36.356Z,25.20
2022-08-09T19:26:31.860Z,24.50
2022-08-09T19:29:02.580Z,24.90
2022-08-09T19:31:43.855Z,26.10
2022-08-09T19:34:22.136Z,24.80
2022-08-09T19:36:54.913Z,24.40
2022-08-09T19:39:28.900Z,24.70
2022-08-09T19:42:15.231Z,24.60
2022-08-09T19:44:49.365Z,25.20
2022-08-09T19:47:22.984Z,24.50
2022-08-09T19:50:06.717Z,25.00
2022-08-09T19:52:36.423Z,24.70
2022-08-09T19:55:04.597Z,25.00
2022-08-09T19:57:31.374Z,24.40
2022-08-09T20:00:07.555Z,24.20
2022-08-09T20:04:24.113Z,23.60
2022-08-09T20:05:25.251Z,24.10
2022-08-09T20:07:58.763Z,24.10
2022-08-09T20:10:34.561Z,23.90
2022-08-09T20:13:02.902Z,24.00
2022-08-09T20:16:33.520Z,23.70
2022-08-09T20:18:20.243Z,23.50
2022-08-09T20:20:50.399Z,24.10
2022-08-09T20:23:19.497Z,24.20
2022-08-09T20:25:52.463Z,23.10
2022-08-09T20:28:34.486Z,23.20
2022-08-09T20:31:11.465Z,23.70
2022-08-09T20:33:44.043Z,23.30
2022-08-09T20:36:12.398Z,23.20
2022-08-09T20:41:35.098Z,23.00
2022-08-09T20:44:06.817Z,23.50
2022-08-09T20:46:43.219Z,23.00
2022-08-09T20:49:12.664Z,23.80
2022-08-09T20:51:41.347Z,22.70
2022-08-09T20:54:12.510Z,22.80
2022-08-09T20:56:46.822Z,22.60
2022-08-09T20:59:17.294Z,21.10
2022-08-09T21:01:50.594Z,24.30
2022-08-09T21:05:53.118Z,23.10
2022-08-09T21:07:11.853Z,22.50
2022-08-09T21:09:45.489Z,22.40
2022-08-09T21:15:12.985Z,22.20
2022-08-09T21:18:21.806Z,23.10
2022-08-09T21:20:31.603Z,22.20
2022-08-09T21:23:00.279Z,22.90
2022-08-09T21:25:59.073Z,20.80
2022-08-09T21:28:35.094Z,23.30
2022-08-09T21:31:16.621Z,23.40
2022-08-09T21:33:51.710Z,23.20
2022-08-09T21:36:28.152Z,23.40
2022-08-09T21:38:58.795Z,23.30
2022-08-09T21:42:05.478Z,21.00
2022-08-09T21:47:07.665Z,23.20
2022-08-09T21:49:42.681Z,21.20
2022-08-09T21:52:17.972Z,21.60
2022-08-09T21:55:02.842Z,21.60
2022-08-09T21:57:38.665Z,20.40
2022-08-09T22:00:25.886Z,20.20
2022-08-09T22:02:59.028Z,20.60
2022-08-09T22:05:36.866Z,22.00
2022-08-09T22:08:06.547Z,21.40
2022-08-09T22:10:34.061Z,21.70
2022-08-09T22:13:07.694Z,21.30
2022-08-09T22:18:08.338Z,22.30
2022-08-09T22:20:40.157Z,22.40
2022-08-09T22:28:33.008Z,20.10
2022-08-09T22:31:01.557Z,20.60
2022-08-09T22:33:37.498Z,19.70
2022-08-09T22:36:19.284Z,19.90
2022-08-09T22:41:13.951Z,21.50
2022-08-09T22:48:11.474Z,21.00
2022-08-09T22:49:15.185Z,19.30
2022-08-09T22:51:49.637Z,21.90
2022-08-09T22:54:27.206Z,19.30
2022-08-09T22:56:57.092Z,19.90
2022-08-09T22:59:58.346Z,20.30
2022-08-09T23:02:15.839Z,20.20
2022-08-09T23:04:53.360Z,19.40
2022-08-09T23:10:27.243Z,19.10
2022-08-09T23:12:54.012Z,21.00
2022-08-09T23:15:20.761Z,19.10
2022-08-09T23:17:47.718Z,19.20
2022-08-09T23:20:14.481Z,21.40
2022-08-09T23:22:41.308Z,19.30
2022-08-09T23:27:35.756Z,19.90
2022-08-09T23:30:22.263Z,21.00
2022-08-09T23:32:49.396Z,19.10
2022-08-09T23:40:11.120Z,20.80
2022-08-09T23:42:39.004Z,21.20
2022-08-09T23:45:08.960Z,19.70
2022-08-09T23:47:36.616Z,19.30
2022-08-09T23:50:04.587Z,18.40
2022-08-09T23:52:31.364Z,18.90
2022-08-09T23:54:59.949Z,18.30
